Pays
Station

 

Conditions  météo  pour  Tivat  -  Yougoslavie    Yougoslavie

  
12 °C
    
 
 

METAR pour Tivat :

LYTV 221600Z VRB01KT CAVOK 12/07 Q1017 NOSIG

 

Voici le bulletin pour Tivat - Yougoslavie.
 
Le bulletin a été fait il y a 15 minutes, à 16:00 UTC .
Le vent soufflait à la vitesse de 0.5 mètres par seconde de direction variable.
 
La température était de 12 °C, avec un point de rosée à 7 °C.
La pression atmosphérique était de 1017 hPa.
L'humidité relative était de 71.4%.
 
Il y avait pas de nuages en-dessous de 1500 mètres et pas de cumulonimbus.
 
La visibilité globale était de supérieure à 10 kilomètres.
 

 
 
 

Pays :   A   B   C   D   E   F   G   H   I   J   K   L   M   N   O   P   Q   R   S   T   U   V   W   Y   Z

 

Partenaires :  Info Météo avec Met'info
Météo Marine avec MeteoMarine.net
Infos Site  |  Infos Légales  |  Crédits  |  Confidentialité
Contactez-nous  |  Ajouter aux favoris
© 2013-2019 METAR - Tous droits réservés